sensor_id;sensor_type;location;lat;lon;timestamp;P1;durP1;ratioP1;P2;durP2;ratioP2
51214;SDS011;63849;47.546;19.254;2023-12-07T00:01:04;40.65;;;20.10;;
51214;SDS011;63849;47.546;19.254;2023-12-07T00:03:30;32.22;;;18.67;;
51214;SDS011;63849;47.546;19.254;2023-12-07T00:05:56;34.40;;;18.48;;
51214;SDS011;63849;47.546;19.254;2023-12-07T00:08:22;29.52;;;16.85;;
51214;SDS011;63849;47.546;19.254;2023-12-07T00:10:48;33.40;;;18.55;;
51214;SDS011;63849;47.546;19.254;2023-12-07T00:13:14;35.10;;;20.27;;
51214;SDS011;63849;47.546;19.254;2023-12-07T00:15:40;26.98;;;17.08;;
51214;SDS011;63849;47.546;19.254;2023-12-07T00:18:05;25.45;;;16.48;;
51214;SDS011;63849;47.546;19.254;2023-12-07T00:20:31;30.95;;;18.20;;
51214;SDS011;63849;47.546;19.254;2023-12-07T00:22:57;38.80;;;19.00;;
51214;SDS011;63849;47.546;19.254;2023-12-07T00:25:23;41.08;;;18.40;;
51214;SDS011;63849;47.546;19.254;2023-12-07T00:27:48;22.23;;;13.93;;
51214;SDS011;63849;47.546;19.254;2023-12-07T00:30:14;15.27;;;11.07;;
51214;SDS011;63849;47.546;19.254;2023-12-07T00:32:40;16.02;;;12.10;;
51214;SDS011;63849;47.546;19.254;2023-12-07T00:35:09;12.73;;;10.00;;
51214;SDS011;63849;47.546;19.254;2023-12-07T00:37:35;14.25;;;10.20;;
51214;SDS011;63849;47.546;19.254;2023-12-07T00:40:02;10.48;;;8.70;;
51214;SDS011;63849;47.546;19.254;2023-12-07T00:42:28;8.52;;;7.53;;
51214;SDS011;63849;47.546;19.254;2023-12-07T00:44:54;7.40;;;6.60;;
51214;SDS011;63849;47.546;19.254;2023-12-07T00:47:20;6.63;;;5.50;;
51214;SDS011;63849;47.546;19.254;2023-12-07T00:49:46;5.25;;;4.75;;
51214;SDS011;63849;47.546;19.254;2023-12-07T00:52:12;5.30;;;4.50;;
51214;SDS011;63849;47.546;19.254;2023-12-07T00:54:38;4.32;;;3.92;;
51214;SDS011;63849;47.546;19.254;2023-12-07T00:57:05;3.83;;;3.53;;
51214;SDS011;63849;47.546;19.254;2023-12-07T00:59:31;4.53;;;4.13;;
51214;SDS011;63849;47.546;19.254;2023-12-07T01:02:02;4.28;;;3.70;;
51214;SDS011;63849;47.546;19.254;2023-12-07T01:04:29;4.13;;;3.72;;
51214;SDS011;63849;47.546;19.254;2023-12-07T01:06:55;4.40;;;4.00;;
51214;SDS011;63849;47.546;19.254;2023-12-07T01:09:20;4.40;;;3.97;;
51214;SDS011;63849;47.546;19.254;2023-12-07T01:11:47;4.50;;;4.10;;
51214;SDS011;63849;47.546;19.254;2023-12-07T01:14:13;4.63;;;4.10;;
51214;SDS011;63849;47.546;19.254;2023-12-07T01:16:39;5.28;;;4.78;;
51214;SDS011;63849;47.546;19.254;2023-12-07T01:19:05;5.82;;;4.68;;
51214;SDS011;63849;47.546;19.254;2023-12-07T01:21:32;5.43;;;4.93;;
51214;SDS011;63849;47.546;19.254;2023-12-07T01:23:58;5.30;;;4.80;;
51214;SDS011;63849;47.546;19.254;2023-12-07T01:26:24;5.13;;;4.63;;
51214;SDS011;63849;47.546;19.254;2023-12-07T01:28:50;5.32;;;4.82;;
51214;SDS011;63849;47.546;19.254;2023-12-07T01:31:16;4.78;;;4.38;;
51214;SDS011;63849;47.546;19.254;2023-12-07T01:33:42;7.05;;;6.32;;
51214;SDS011;63849;47.546;19.254;2023-12-07T01:36:08;6.72;;;6.13;;
51214;SDS011;63849;47.546;19.254;2023-12-07T01:38:35;7.93;;;7.22;;
51214;SDS011;63849;47.546;19.254;2023-12-07T01:41:01;8.90;;;8.05;;
51214;SDS011;63849;47.546;19.254;2023-12-07T01:43:27;7.65;;;6.95;;
51214;SDS011;63849;47.546;19.254;2023-12-07T01:45:53;6.53;;;5.85;;
51214;SDS011;63849;47.546;19.254;2023-12-07T01:48:22;4.50;;;4.10;;
51214;SDS011;63849;47.546;19.254;2023-12-07T01:50:51;5.28;;;4.35;;
51214;SDS011;63849;47.546;19.254;2023-12-07T01:53:19;4.57;;;4.18;;
51214;SDS011;63849;47.546;19.254;2023-12-07T01:55:50;3.92;;;3.63;;
51214;SDS011;63849;47.546;19.254;2023-12-07T01:58:18;4.10;;;3.80;;
51214;SDS011;63849;47.546;19.254;2023-12-07T02:00:44;4.50;;;4.10;;
51214;SDS011;63849;47.546;19.254;2023-12-07T02:03:11;4.53;;;4.13;;
51214;SDS011;63849;47.546;19.254;2023-12-07T02:05:37;4.97;;;4.40;;
51214;SDS011;63849;47.546;19.254;2023-12-07T02:08:07;4.88;;;4.47;;
51214;SDS011;63849;47.546;19.254;2023-12-07T02:10:33;4.63;;;4.18;;
51214;SDS011;63849;47.546;19.254;2023-12-07T02:12:59;4.60;;;4.20;;
51214;SDS011;63849;47.546;19.254;2023-12-07T02:15:24;3.40;;;3.08;;
51214;SDS011;63849;47.546;19.254;2023-12-07T02:17:57;3.70;;;3.40;;
51214;SDS011;63849;47.546;19.254;2023-12-07T02:23:07;2.70;;;2.25;;
51214;SDS011;63849;47.546;19.254;2023-12-07T02:28:56;1.88;;;1.77;;
51214;SDS011;63849;47.546;19.254;2023-12-07T02:31:21;2.25;;;2.03;;
51214;SDS011;63849;47.546;19.254;2023-12-07T02:33:48;1.90;;;1.77;;
51214;SDS011;63849;47.546;19.254;2023-12-07T02:36:15;2.65;;;2.30;;
51214;SDS011;63849;47.546;19.254;2023-12-07T02:38:47;2.55;;;2.28;;
51214;SDS011;63849;47.546;19.254;2023-12-07T02:41:16;2.20;;;2.03;;
51214;SDS011;63849;47.546;19.254;2023-12-07T02:43:43;1.85;;;1.75;;
51214;SDS011;63849;47.546;19.254;2023-12-07T02:46:10;1.90;;;1.80;;
51214;SDS011;63849;47.546;19.254;2023-12-07T02:48:36;1.90;;;1.80;;
51214;SDS011;63849;47.546;19.254;2023-12-07T02:51:01;2.20;;;2.05;;
51214;SDS011;63849;47.546;19.254;2023-12-07T02:53:27;2.10;;;2.00;;
51214;SDS011;63849;47.546;19.254;2023-12-07T02:55:53;2.05;;;1.90;;
51214;SDS011;63849;47.546;19.254;2023-12-07T02:58:19;2.17;;;2.08;;
51214;SDS011;63849;47.546;19.254;2023-12-07T03:00:45;2.33;;;2.13;;
51214;SDS011;63849;47.546;19.254;2023-12-07T03:03:10;2.50;;;2.30;;
51214;SDS011;63849;47.546;19.254;2023-12-07T03:05:36;3.40;;;3.03;;
51214;SDS011;63849;47.546;19.254;2023-12-07T03:08:02;3.58;;;2.25;;
51214;SDS011;63849;47.546;19.254;2023-12-07T03:10:28;3.38;;;2.83;;
51214;SDS011;63849;47.546;19.254;2023-12-07T03:12:53;2.70;;;2.50;;
51214;SDS011;63849;47.546;19.254;2023-12-07T03:15:19;3.40;;;3.08;;
51214;SDS011;63849;47.546;19.254;2023-12-07T03:17:45;3.33;;;3.13;;
51214;SDS011;63849;47.546;19.254;2023-12-07T03:20:11;3.47;;;3.17;;
51214;SDS011;63849;47.546;19.254;2023-12-07T03:22:37;4.30;;;3.90;;
51214;SDS011;63849;47.546;19.254;2023-12-07T03:25:03;3.95;;;3.65;;
51214;SDS011;63849;47.546;19.254;2023-12-07T03:27:29;4.32;;;3.88;;
51214;SDS011;63849;47.546;19.254;2023-12-07T03:29:55;3.53;;;3.17;;
51214;SDS011;63849;47.546;19.254;2023-12-07T03:32:21;4.28;;;3.88;;
51214;SDS011;63849;47.546;19.254;2023-12-07T03:34:46;4.05;;;3.67;;
51214;SDS011;63849;47.546;19.254;2023-12-07T03:37:12;4.63;;;4.07;;
51214;SDS011;63849;47.546;19.254;2023-12-07T03:39:38;5.10;;;4.60;;
51214;SDS011;63849;47.546;19.254;2023-12-07T03:42:03;4.85;;;4.28;;
51214;SDS011;63849;47.546;19.254;2023-12-07T03:44:29;5.30;;;4.80;;
51214;SDS011;63849;47.546;19.254;2023-12-07T03:46:56;4.53;;;4.13;;
51214;SDS011;63849;47.546;19.254;2023-12-07T03:49:21;4.70;;;4.00;;
51214;SDS011;63849;47.546;19.254;2023-12-07T03:51:47;5.68;;;5.10;;
51214;SDS011;63849;47.546;19.254;2023-12-07T03:54:13;6.20;;;5.60;;
51214;SDS011;63849;47.546;19.254;2023-12-07T03:56:39;7.20;;;5.90;;
51214;SDS011;63849;47.546;19.254;2023-12-07T03:59:05;6.43;;;5.80;;
51214;SDS011;63849;47.546;19.254;2023-12-07T04:01:31;5.22;;;4.80;;
51214;SDS011;63849;47.546;19.254;2023-12-07T04:03:57;6.00;;;5.40;;
51214;SDS011;63849;47.546;19.254;2023-12-07T04:06:24;5.40;;;4.90;;
51214;SDS011;63849;47.546;19.254;2023-12-07T04:08:50;6.55;;;5.93;;
51214;SDS011;63849;47.546;19.254;2023-12-07T04:11:16;4.93;;;4.43;;
51214;SDS011;63849;47.546;19.254;2023-12-07T04:13:42;5.93;;;5.32;;
51214;SDS011;63849;47.546;19.254;2023-12-07T04:16:08;5.55;;;5.05;;
51214;SDS011;63849;47.546;19.254;2023-12-07T04:18:35;5.80;;;5.20;;
51214;SDS011;63849;47.546;19.254;2023-12-07T04:21:01;67.53;;;60.45;;
51214;SDS011;63849;47.546;19.254;2023-12-07T04:23:28;148.82;;;129.50;;
51214;SDS011;63849;47.546;19.254;2023-12-07T04:25:54;46.90;;;41.78;;
51214;SDS011;63849;47.546;19.254;2023-12-07T04:28:19;21.50;;;17.73;;
51214;SDS011;63849;47.546;19.254;2023-12-07T04:30:45;10.18;;;9.13;;
51214;SDS011;63849;47.546;19.254;2023-12-07T04:33:11;93.40;;;77.38;;
51214;SDS011;63849;47.546;19.254;2023-12-07T04:35:37;36.13;;;28.95;;
51214;SDS011;63849;47.546;19.254;2023-12-07T04:38:02;24.10;;;20.58;;
51214;SDS011;63849;47.546;19.254;2023-12-07T04:40:28;12.52;;;10.75;;
51214;SDS011;63849;47.546;19.254;2023-12-07T04:42:54;13.30;;;11.90;;
51214;SDS011;63849;47.546;19.254;2023-12-07T04:45:20;9.27;;;8.25;;
51214;SDS011;63849;47.546;19.254;2023-12-07T04:47:45;9.85;;;7.70;;
51214;SDS011;63849;47.546;19.254;2023-12-07T04:50:11;9.07;;;7.40;;
51214;SDS011;63849;47.546;19.254;2023-12-07T04:52:38;8.20;;;6.22;;
51214;SDS011;63849;47.546;19.254;2023-12-07T04:55:04;7.53;;;6.30;;
51214;SDS011;63849;47.546;19.254;2023-12-07T04:57:34;5.88;;;5.28;;
51214;SDS011;63849;47.546;19.254;2023-12-07T05:00:00;7.00;;;6.20;;
51214;SDS011;63849;47.546;19.254;2023-12-07T05:02:31;6.95;;;5.28;;
51214;SDS011;63849;47.546;19.254;2023-12-07T05:04:57;8.23;;;7.43;;
51214;SDS011;63849;47.546;19.254;2023-12-07T05:07:23;7.80;;;7.00;;
51214;SDS011;63849;47.546;19.254;2023-12-07T05:09:49;21.73;;;19.10;;
51214;SDS011;63849;47.546;19.254;2023-12-07T05:12:16;15.43;;;13.65;;
51214;SDS011;63849;47.546;19.254;2023-12-07T05:14:42;29.55;;;24.60;;
51214;SDS011;63849;47.546;19.254;2023-12-07T05:17:08;9.85;;;8.80;;
51214;SDS011;63849;47.546;19.254;2023-12-07T05:19:34;8.65;;;7.85;;
51214;SDS011;63849;47.546;19.254;2023-12-07T05:22:00;6.00;;;5.50;;
51214;SDS011;63849;47.546;19.254;2023-12-07T05:24:26;9.38;;;7.95;;
51214;SDS011;63849;47.546;19.254;2023-12-07T05:26:52;9.20;;;8.30;;
51214;SDS011;63849;47.546;19.254;2023-12-07T05:29:18;12.30;;;11.13;;
51214;SDS011;63849;47.546;19.254;2023-12-07T05:31:44;9.23;;;8.43;;
51214;SDS011;63849;47.546;19.254;2023-12-07T05:34:10;8.65;;;7.80;;
51214;SDS011;63849;47.546;19.254;2023-12-07T05:36:36;7.03;;;6.32;;
51214;SDS011;63849;47.546;19.254;2023-12-07T05:39:02;6.53;;;5.93;;
51214;SDS011;63849;47.546;19.254;2023-12-07T05:41:28;7.80;;;6.80;;
51214;SDS011;63849;47.546;19.254;2023-12-07T05:43:53;7.32;;;6.63;;
51214;SDS011;63849;47.546;19.254;2023-12-07T05:46:19;7.13;;;5.85;;
51214;SDS011;63849;47.546;19.254;2023-12-07T05:48:45;7.80;;;6.85;;
51214;SDS011;63849;47.546;19.254;2023-12-07T05:51:16;7.70;;;6.63;;
51214;SDS011;63849;47.546;19.254;2023-12-07T05:53:43;14.48;;;10.55;;
51214;SDS011;63849;47.546;19.254;2023-12-07T05:56:09;13.27;;;9.88;;
51214;SDS011;63849;47.546;19.254;2023-12-07T05:58:36;12.23;;;9.85;;
51214;SDS011;63849;47.546;19.254;2023-12-07T06:01:02;9.60;;;8.30;;
51214;SDS011;63849;47.546;19.254;2023-12-07T06:03:28;11.80;;;8.88;;
51214;SDS011;63849;47.546;19.254;2023-12-07T06:05:54;12.75;;;9.23;;
51214;SDS011;63849;47.546;19.254;2023-12-07T06:08:21;12.63;;;9.80;;
51214;SDS011;63849;47.546;19.254;2023-12-07T06:10:47;10.82;;;8.88;;
51214;SDS011;63849;47.546;19.254;2023-12-07T06:13:13;12.25;;;9.30;;
51214;SDS011;63849;47.546;19.254;2023-12-07T06:15:39;9.57;;;8.57;;
51214;SDS011;63849;47.546;19.254;2023-12-07T06:18:05;10.05;;;8.73;;
51214;SDS011;63849;47.546;19.254;2023-12-07T06:20:32;10.55;;;9.15;;
51214;SDS011;63849;47.546;19.254;2023-12-07T06:22:58;10.00;;;8.50;;
51214;SDS011;63849;47.546;19.254;2023-12-07T06:25:24;14.88;;;12.90;;
51214;SDS011;63849;47.546;19.254;2023-12-07T06:27:50;13.77;;;11.68;;
51214;SDS011;63849;47.546;19.254;2023-12-07T06:30:16;16.05;;;13.55;;
51214;SDS011;63849;47.546;19.254;2023-12-07T06:32:43;12.82;;;10.52;;
51214;SDS011;63849;47.546;19.254;2023-12-07T06:35:11;12.30;;;10.90;;
51214;SDS011;63849;47.546;19.254;2023-12-07T06:37:40;12.80;;;10.23;;
51214;SDS011;63849;47.546;19.254;2023-12-07T06:40:08;12.20;;;10.25;;
51214;SDS011;63849;47.546;19.254;2023-12-07T06:42:34;11.00;;;9.60;;
51214;SDS011;63849;47.546;19.254;2023-12-07T06:45:01;9.05;;;7.88;;
51214;SDS011;63849;47.546;19.254;2023-12-07T06:47:27;8.15;;;7.30;;
51214;SDS011;63849;47.546;19.254;2023-12-07T06:49:53;7.32;;;6.50;;
51214;SDS011;63849;47.546;19.254;2023-12-07T06:52:20;7.70;;;6.80;;
51214;SDS011;63849;47.546;19.254;2023-12-07T06:54:46;9.57;;;8.00;;
51214;SDS011;63849;47.546;19.254;2023-12-07T06:57:11;10.15;;;8.65;;
51214;SDS011;63849;47.546;19.254;2023-12-07T06:59:37;9.93;;;8.90;;
51214;SDS011;63849;47.546;19.254;2023-12-07T07:02:03;10.45;;;9.02;;
51214;SDS011;63849;47.546;19.254;2023-12-07T07:04:29;7.88;;;7.13;;
51214;SDS011;63849;47.546;19.254;2023-12-07T07:06:55;8.32;;;7.53;;
51214;SDS011;63849;47.546;19.254;2023-12-07T07:09:21;10.40;;;8.18;;
51214;SDS011;63849;47.546;19.254;2023-12-07T07:11:47;9.68;;;7.50;;
51214;SDS011;63849;47.546;19.254;2023-12-07T07:14:13;10.13;;;6.75;;
51214;SDS011;63849;47.546;19.254;2023-12-07T07:16:39;6.93;;;5.88;;
51214;SDS011;63849;47.546;19.254;2023-12-07T07:19:06;7.53;;;6.03;;
51214;SDS011;63849;47.546;19.254;2023-12-07T07:21:31;7.00;;;5.40;;
51214;SDS011;63849;47.546;19.254;2023-12-07T07:23:57;7.82;;;6.00;;
51214;SDS011;63849;47.546;19.254;2023-12-07T07:26:23;8.98;;;7.50;;
51214;SDS011;63849;47.546;19.254;2023-12-07T07:28:50;19.83;;;13.70;;
51214;SDS011;63849;47.546;19.254;2023-12-07T07:31:17;20.27;;;14.63;;
51214;SDS011;63849;47.546;19.254;2023-12-07T07:33:43;21.73;;;15.02;;
51214;SDS011;63849;47.546;19.254;2023-12-07T07:36:09;17.75;;;12.63;;
51214;SDS011;63849;47.546;19.254;2023-12-07T07:38:36;20.80;;;13.27;;
51214;SDS011;63849;47.546;19.254;2023-12-07T07:41:03;24.00;;;17.20;;
51214;SDS011;63849;47.546;19.254;2023-12-07T07:43:29;25.33;;;17.33;;
51214;SDS011;63849;47.546;19.254;2023-12-07T07:45:55;24.20;;;16.98;;
51214;SDS011;63849;47.546;19.254;2023-12-07T07:48:21;19.80;;;14.80;;
51214;SDS011;63849;47.546;19.254;2023-12-07T07:50:47;16.60;;;12.68;;
51214;SDS011;63849;47.546;19.254;2023-12-07T07:53:13;11.20;;;9.65;;
51214;SDS011;63849;47.546;19.254;2023-12-07T07:55:39;13.23;;;10.35;;
51214;SDS011;63849;47.546;19.254;2023-12-07T07:58:04;11.48;;;9.85;;
51214;SDS011;63849;47.546;19.254;2023-12-07T08:00:30;11.70;;;10.13;;
51214;SDS011;63849;47.546;19.254;2023-12-07T08:02:58;13.95;;;11.77;;
51214;SDS011;63849;47.546;19.254;2023-12-07T08:05:23;11.45;;;10.23;;
51214;SDS011;63849;47.546;19.254;2023-12-07T08:07:49;10.43;;;9.32;;
51214;SDS011;63849;47.546;19.254;2023-12-07T08:10:16;10.93;;;8.75;;
51214;SDS011;63849;47.546;19.254;2023-12-07T08:12:42;10.25;;;9.15;;
51214;SDS011;63849;47.546;19.254;2023-12-07T08:15:08;10.13;;;9.07;;
51214;SDS011;63849;47.546;19.254;2023-12-07T08:17:42;8.25;;;7.45;;
51214;SDS011;63849;47.546;19.254;2023-12-07T08:20:08;12.55;;;11.10;;
51214;SDS011;63849;47.546;19.254;2023-12-07T08:22:39;9.23;;;8.20;;
51214;SDS011;63849;47.546;19.254;2023-12-07T08:25:09;9.85;;;7.93;;
51214;SDS011;63849;47.546;19.254;2023-12-07T08:27:36;9.77;;;8.77;;
51214;SDS011;63849;47.546;19.254;2023-12-07T08:30:03;52.58;;;26.20;;
51214;SDS011;63849;47.546;19.254;2023-12-07T08:32:29;89.40;;;35.72;;
51214;SDS011;63849;47.546;19.254;2023-12-07T08:34:56;37.30;;;19.55;;
51214;SDS011;63849;47.546;19.254;2023-12-07T08:37:21;18.40;;;15.52;;
51214;SDS011;63849;47.546;19.254;2023-12-07T08:39:47;12.10;;;11.00;;
51214;SDS011;63849;47.546;19.254;2023-12-07T08:42:14;8.57;;;7.80;;
51214;SDS011;63849;47.546;19.254;2023-12-07T08:44:40;6.93;;;6.28;;
51214;SDS011;63849;47.546;19.254;2023-12-07T08:47:06;5.97;;;5.47;;
51214;SDS011;63849;47.546;19.254;2023-12-07T09:21:55;11.73;;;10.52;;
51214;SDS011;63849;47.546;19.254;2023-12-07T09:24:21;12.65;;;10.82;;
51214;SDS011;63849;47.546;19.254;2023-12-07T09:26:47;12.65;;;11.32;;
51214;SDS011;63849;47.546;19.254;2023-12-07T09:29:14;17.45;;;15.40;;
51214;SDS011;63849;47.546;19.254;2023-12-07T09:31:40;16.48;;;12.38;;
51214;SDS011;63849;47.546;19.254;2023-12-07T09:34:06;19.35;;;14.45;;
51214;SDS011;63849;47.546;19.254;2023-12-07T09:36:33;19.85;;;14.90;;
51214;SDS011;63849;47.546;19.254;2023-12-07T09:39:01;17.25;;;14.05;;
51214;SDS011;63849;47.546;19.254;2023-12-07T09:41:29;16.75;;;14.90;;
51214;SDS011;63849;47.546;19.254;2023-12-07T09:43:55;11.00;;;9.55;;
51214;SDS011;63849;47.546;19.254;2023-12-07T09:46:25;17.15;;;13.88;;
51214;SDS011;63849;47.546;19.254;2023-12-07T09:48:52;13.38;;;11.68;;
51214;SDS011;63849;47.546;19.254;2023-12-07T09:51:22;23.05;;;20.52;;
51214;SDS011;63849;47.546;19.254;2023-12-07T09:53:48;40.63;;;34.78;;
51214;SDS011;63849;47.546;19.254;2023-12-07T09:56:38;32.42;;;29.02;;
51214;SDS011;63849;47.546;19.254;2023-12-07T09:59:04;51.30;;;46.38;;
51214;SDS011;63849;47.546;19.254;2023-12-07T10:01:32;36.95;;;33.20;;
51214;SDS011;63849;47.546;19.254;2023-12-07T10:04:18;35.78;;;32.15;;
51214;SDS011;63849;47.546;19.254;2023-12-07T10:06:45;28.83;;;25.85;;
51214;SDS011;63849;47.546;19.254;2023-12-07T10:09:12;22.30;;;17.27;;
51214;SDS011;63849;47.546;19.254;2023-12-07T10:11:41;36.47;;;31.75;;
51214;SDS011;63849;47.546;19.254;2023-12-07T10:14:10;54.58;;;43.60;;
51214;SDS011;63849;47.546;19.254;2023-12-07T10:16:36;213.35;;;153.75;;
51214;SDS011;63849;47.546;19.254;2023-12-07T10:19:15;71.90;;;55.05;;
51214;SDS011;63849;47.546;19.254;2023-12-07T10:21:46;57.55;;;43.03;;
51214;SDS011;63849;47.546;19.254;2023-12-07T10:24:13;36.92;;;32.92;;
51214;SDS011;63849;47.546;19.254;2023-12-07T10:26:45;33.90;;;30.20;;
51214;SDS011;63849;47.546;19.254;2023-12-07T10:29:14;21.38;;;19.02;;
51214;SDS011;63849;47.546;19.254;2023-12-07T10:31:52;14.52;;;11.05;;
51214;SDS011;63849;47.546;19.254;2023-12-07T10:34:26;55.53;;;50.33;;
51214;SDS011;63849;47.546;19.254;2023-12-07T10:36:52;48.28;;;43.58;;
51214;SDS011;63849;47.546;19.254;2023-12-07T10:39:21;28.42;;;25.42;;
51214;SDS011;63849;47.546;19.254;2023-12-07T10:41:49;29.02;;;25.92;;
51214;SDS011;63849;47.546;19.254;2023-12-07T10:44:21;23.25;;;20.85;;
51214;SDS011;63849;47.546;19.254;2023-12-07T10:46:54;21.55;;;19.20;;
51214;SDS011;63849;47.546;19.254;2023-12-07T10:49:31;23.80;;;18.05;;
51214;SDS011;63849;47.546;19.254;2023-12-07T10:52:09;17.33;;;14.38;;
51214;SDS011;63849;47.546;19.254;2023-12-07T10:54:41;15.57;;;12.60;;
51214;SDS011;63849;47.546;19.254;2023-12-07T10:57:19;16.00;;;13.80;;
51214;SDS011;63849;47.546;19.254;2023-12-07T10:59:52;18.15;;;15.98;;
51214;SDS011;63849;47.546;19.254;2023-12-07T11:02:31;17.92;;;14.80;;
51214;SDS011;63849;47.546;19.254;2023-12-07T11:05:01;20.20;;;15.43;;
51214;SDS011;63849;47.546;19.254;2023-12-07T11:13:29;21.08;;;17.67;;
51214;SDS011;63849;47.546;19.254;2023-12-07T11:15:57;22.63;;;20.23;;
51214;SDS011;63849;47.546;19.254;2023-12-07T11:18:41;15.93;;;13.35;;
51214;SDS011;63849;47.546;19.254;2023-12-07T11:21:07;29.92;;;24.50;;
51214;SDS011;63849;47.546;19.254;2023-12-07T11:23:33;102.15;;;76.18;;
51214;SDS011;63849;47.546;19.254;2023-12-07T11:26:01;67.70;;;51.88;;
51214;SDS011;63849;47.546;19.254;2023-12-07T11:28:37;100.82;;;82.82;;
51214;SDS011;63849;47.546;19.254;2023-12-07T11:31:08;76.88;;;61.42;;
51214;SDS011;63849;47.546;19.254;2023-12-07T11:33:34;128.68;;;66.53;;
51214;SDS011;63849;47.546;19.254;2023-12-07T11:36:08;83.38;;;56.80;;
51214;SDS011;63849;47.546;19.254;2023-12-07T11:38:38;47.35;;;37.05;;
51214;SDS011;63849;47.546;19.254;2023-12-07T11:41:21;46.90;;;41.13;;
51214;SDS011;63849;47.546;19.254;2023-12-07T11:43:47;73.25;;;65.38;;
51214;SDS011;63849;47.546;19.254;2023-12-07T11:46:14;131.20;;;94.90;;
51214;SDS011;63849;47.546;19.254;2023-12-07T11:48:45;51.38;;;39.28;;
51214;SDS011;63849;47.546;19.254;2023-12-07T11:51:12;44.03;;;27.88;;
51214;SDS011;63849;47.546;19.254;2023-12-07T11:53:38;43.20;;;31.17;;
51214;SDS011;63849;47.546;19.254;2023-12-07T11:56:04;111.22;;;70.88;;
51214;SDS011;63849;47.546;19.254;2023-12-07T11:58:35;55.45;;;39.10;;
51214;SDS011;63849;47.546;19.254;2023-12-07T12:01:02;37.08;;;24.33;;
51214;SDS011;63849;47.546;19.254;2023-12-07T12:03:30;23.50;;;18.10;;
51214;SDS011;63849;47.546;19.254;2023-12-07T12:06:03;32.53;;;21.35;;
51214;SDS011;63849;47.546;19.254;2023-12-07T12:08:31;27.63;;;19.88;;
51214;SDS011;63849;47.546;19.254;2023-12-07T12:10:57;22.35;;;16.88;;
51214;SDS011;63849;47.546;19.254;2023-12-07T12:13:29;27.35;;;20.33;;
51214;SDS011;63849;47.546;19.254;2023-12-07T12:15:59;18.90;;;16.60;;
51214;SDS011;63849;47.546;19.254;2023-12-07T12:18:26;17.58;;;14.68;;
51214;SDS011;63849;47.546;19.254;2023-12-07T12:20:55;18.60;;;15.00;;
51214;SDS011;63849;47.546;19.254;2023-12-07T12:23:22;19.38;;;15.35;;
51214;SDS011;63849;47.546;19.254;2023-12-07T12:25:48;21.63;;;16.27;;
51214;SDS011;63849;47.546;19.254;2023-12-07T12:28:17;23.35;;;16.92;;
51214;SDS011;63849;47.546;19.254;2023-12-07T12:30:46;20.40;;;16.45;;
51214;SDS011;63849;47.546;19.254;2023-12-07T12:33:13;24.13;;;17.77;;
51214;SDS011;63849;47.546;19.254;2023-12-07T12:35:39;21.85;;;16.80;;
51214;SDS011;63849;47.546;19.254;2023-12-07T12:38:09;23.75;;;18.58;;
51214;SDS011;63849;47.546;19.254;2023-12-07T12:40:36;24.98;;;20.55;;
51214;SDS011;63849;47.546;19.254;2023-12-07T12:43:02;25.70;;;20.83;;
51214;SDS011;63849;47.546;19.254;2023-12-07T12:45:28;38.95;;;27.15;;
51214;SDS011;63849;47.546;19.254;2023-12-07T12:47:53;39.33;;;32.10;;
51214;SDS011;63849;47.546;19.254;2023-12-07T12:50:36;46.30;;;33.10;;
51214;SDS011;63849;47.546;19.254;2023-12-07T12:53:07;61.55;;;45.25;;
51214;SDS011;63849;47.546;19.254;2023-12-07T12:55:35;68.03;;;55.50;;
51214;SDS011;63849;47.546;19.254;2023-12-07T12:58:06;39.78;;;29.67;;
51214;SDS011;63849;47.546;19.254;2023-12-07T13:00:33;27.70;;;21.52;;
51214;SDS011;63849;47.546;19.254;2023-12-07T13:02:59;93.20;;;57.10;;
51214;SDS011;63849;47.546;19.254;2023-12-07T13:05:26;92.45;;;57.65;;
51214;SDS011;63849;47.546;19.254;2023-12-07T13:07:52;66.72;;;42.95;;
51214;SDS011;63849;47.546;19.254;2023-12-07T13:10:18;51.17;;;36.22;;
51214;SDS011;63849;47.546;19.254;2023-12-07T13:12:44;38.03;;;29.33;;
51214;SDS011;63849;47.546;19.254;2023-12-07T13:15:10;37.05;;;25.85;;
51214;SDS011;63849;47.546;19.254;2023-12-07T13:17:37;38.80;;;27.38;;
51214;SDS011;63849;47.546;19.254;2023-12-07T13:20:05;37.25;;;26.02;;
51214;SDS011;63849;47.546;19.254;2023-12-07T13:22:33;32.00;;;25.52;;
51214;SDS011;63849;47.546;19.254;2023-12-07T13:24:59;31.90;;;26.55;;
51214;SDS011;63849;47.546;19.254;2023-12-07T13:27:25;28.85;;;22.55;;
51214;SDS011;63849;47.546;19.254;2023-12-07T13:29:51;34.03;;;26.10;;
51214;SDS011;63849;47.546;19.254;2023-12-07T13:32:16;46.72;;;33.53;;
51214;SDS011;63849;47.546;19.254;2023-12-07T13:34:43;42.15;;;31.05;;
51214;SDS011;63849;47.546;19.254;2023-12-07T13:37:09;54.22;;;35.17;;
51214;SDS011;63849;47.546;19.254;2023-12-07T13:39:34;91.53;;;45.03;;
51214;SDS011;63849;47.546;19.254;2023-12-07T13:42:01;129.88;;;58.00;;
51214;SDS011;63849;47.546;19.254;2023-12-07T13:44:27;112.57;;;50.65;;
51214;SDS011;63849;47.546;19.254;2023-12-07T13:46:53;103.07;;;49.25;;
51214;SDS011;63849;47.546;19.254;2023-12-07T13:49:19;63.50;;;37.75;;
51214;SDS011;63849;47.546;19.254;2023-12-07T13:51:46;65.47;;;38.50;;
51214;SDS011;63849;47.546;19.254;2023-12-07T13:54:12;59.92;;;37.78;;
51214;SDS011;63849;47.546;19.254;2023-12-07T13:56:37;64.15;;;41.50;;
51214;SDS011;63849;47.546;19.254;2023-12-07T13:59:03;50.10;;;36.95;;
51214;SDS011;63849;47.546;19.254;2023-12-07T14:01:32;37.72;;;29.15;;
51214;SDS011;63849;47.546;19.254;2023-12-07T14:03:58;33.45;;;26.30;;
51214;SDS011;63849;47.546;19.254;2023-12-07T14:06:26;34.72;;;27.77;;
51214;SDS011;63849;47.546;19.254;2023-12-07T14:08:52;37.25;;;28.45;;
51214;SDS011;63849;47.546;19.254;2023-12-07T14:11:18;38.40;;;28.30;;
51214;SDS011;63849;47.546;19.254;2023-12-07T14:13:44;42.00;;;30.40;;
51214;SDS011;63849;47.546;19.254;2023-12-07T14:16:14;39.75;;;30.67;;
51214;SDS011;63849;47.546;19.254;2023-12-07T14:18:39;40.88;;;32.08;;
51214;SDS011;63849;47.546;19.254;2023-12-07T14:21:05;36.90;;;26.15;;
51214;SDS011;63849;47.546;19.254;2023-12-07T14:23:31;36.83;;;31.23;;
51214;SDS011;63849;47.546;19.254;2023-12-07T14:25:57;40.65;;;30.77;;
51214;SDS011;63849;47.546;19.254;2023-12-07T14:28:24;33.20;;;26.55;;
51214;SDS011;63849;47.546;19.254;2023-12-07T14:30:50;31.95;;;24.88;;
51214;SDS011;63849;47.546;19.254;2023-12-07T14:33:21;34.65;;;24.58;;
51214;SDS011;63849;47.546;19.254;2023-12-07T14:35:47;27.63;;;22.33;;
51214;SDS011;63849;47.546;19.254;2023-12-07T14:38:14;31.58;;;24.65;;
51214;SDS011;63849;47.546;19.254;2023-12-07T14:40:40;36.53;;;27.45;;
51214;SDS011;63849;47.546;19.254;2023-12-07T14:43:06;36.67;;;28.88;;
51214;SDS011;63849;47.546;19.254;2023-12-07T14:45:32;44.53;;;31.88;;
51214;SDS011;63849;47.546;19.254;2023-12-07T14:47:57;57.25;;;36.80;;
51214;SDS011;63849;47.546;19.254;2023-12-07T14:50:23;47.28;;;33.22;;
51214;SDS011;63849;47.546;19.254;2023-12-07T14:52:49;39.33;;;30.08;;
51214;SDS011;63849;47.546;19.254;2023-12-07T14:55:15;36.15;;;27.98;;
51214;SDS011;63849;47.546;19.254;2023-12-07T14:57:43;41.78;;;30.88;;
51214;SDS011;63849;47.546;19.254;2023-12-07T15:00:10;42.75;;;31.67;;
51214;SDS011;63849;47.546;19.254;2023-12-07T15:02:36;35.30;;;27.48;;